Freeman, Colorado
Current Conditions -  °F | °C
As of 4:10 PM on Thursday 20 Nov 2014 (Local Time) from KRCV Reporting Station
Broken Clouds Broken Clouds  
Wind Chill: 38°   Ceiling: 9500
Heat Index: 38°   Visibility: 10mi
Dew Point: 10°   Wind: 0mph
Humidity: 32%   Direction: NA
Pressure: 30.07"   Gusts: NA
Location:  37.6359°N, 106.449°W
Report Text: KRCV 202310Z AUTO 00000KT 10SM BKN095 04/M12 A3007 RMK AO2 T00351120
Loading
Personal Weather Stations






























Interactive Weather Map New forecast layout! Learn more

10-Day Weather Forecast

Advertisements
Track Severe Weather on mobile